createdAt,value
2022-08-16T07:06:13.541Z,96025.63
2022-08-16T07:07:16.131Z,96026.88
2022-08-16T07:08:17.556Z,96036.50
2022-08-16T07:09:21.357Z,96018.34
2022-08-16T07:10:28.323Z,96029.50
2022-08-16T07:11:45.618Z,96015.94
2022-08-16T07:28:51.912Z,96018.13
2022-08-16T07:29:55.578Z,96012.16
2022-08-16T07:30:59.867Z,96013.56
2022-08-16T07:32:02.507Z,96017.38
2022-08-16T07:33:07.192Z,96016.91
2022-08-16T07:45:33.764Z,96013.16
2022-08-16T07:46:38.064Z,96012.69
2022-08-16T07:47:43.334Z,96021.19
2022-08-16T07:48:44.760Z,96022.06
2022-08-16T07:49:53.258Z,96020.47
2022-08-16T07:51:02.403Z,96014.75
2022-08-16T08:00:20.701Z,96020.75
2022-08-16T08:01:30.041Z,96029.69
2022-08-16T08:02:32.396Z,96029.41
2022-08-16T08:03:36.032Z,96038.06
2022-08-16T08:04:40.694Z,96040.91
2022-08-16T08:05:42.638Z,96041.56
2022-08-16T08:06:45.333Z,96043.66
2022-08-16T08:07:57.600Z,96033.03
2022-08-16T08:09:00.332Z,96040.38
2022-08-16T08:10:02.387Z,96039.72
2022-08-16T08:11:09.117Z,96040.69
2022-08-16T08:12:31.915Z,96036.06
2022-08-16T08:13:42.183Z,96039.66
2022-08-16T08:14:44.194Z,96037.72
2022-08-16T08:15:52.906Z,96049.19
2022-08-16T08:16:54.732Z,96038.13
2022-08-16T08:17:56.583Z,96045.34
2022-08-16T08:19:17.940Z,96053.09
2022-08-16T08:20:26.587Z,96053.06
2022-08-16T08:21:58.405Z,96045.16
2022-08-16T08:23:00.081Z,96045.91
2022-08-16T08:34:39.880Z,96052.75
2022-08-16T08:35:41.526Z,96052.94
2022-08-16T08:36:42.964Z,96048.28
2022-08-16T08:37:55.206Z,96050.84
2022-08-16T08:38:57.972Z,96044.16
2022-08-16T08:40:00.775Z,96045.94
2022-08-16T08:41:02.764Z,96053.38
2022-08-16T08:42:05.443Z,96062.25
2022-08-16T08:43:12.687Z,96056.38
2022-08-16T08:44:27.793Z,96067.25
2022-08-16T08:45:49.219Z,96063.47
2022-08-16T08:47:00.087Z,96063.13
2022-08-16T08:55:43.387Z,96065.53
2022-08-16T08:56:46.225Z,96064.28
2022-08-16T08:57:47.773Z,96053.88
2022-08-16T08:58:54.023Z,96066.16
2022-08-16T08:59:59.566Z,96057.06
2022-08-16T09:01:02.992Z,96061.16
2022-08-16T09:02:08.805Z,96067.19
2022-08-16T09:03:14.742Z,96063.56
2022-08-16T09:04:18.003Z,96062.56
2022-08-16T09:05:22.803Z,96066.22
2022-08-16T09:06:24.205Z,96066.84
2022-08-16T09:07:27.949Z,96061.00
2022-08-16T09:08:31.499Z,96066.19
2022-08-16T09:09:37.784Z,96068.44
2022-08-16T09:10:42.726Z,96061.78
2022-08-16T09:11:53.325Z,96063.19
2022-08-16T09:12:55.341Z,96069.47
2022-08-16T09:13:58.115Z,96068.66
2022-08-16T09:15:00.114Z,96063.84
2022-08-16T09:16:01.716Z,96065.91
2022-08-16T09:17:11.837Z,96070.16
2022-08-16T09:18:26.251Z,96070.06
2022-08-16T09:19:40.900Z,96072.53
2022-08-16T09:20:59.202Z,96072.03
2022-08-16T09:31:47.286Z,96053.75
2022-08-16T09:32:54.906Z,96062.69
2022-08-16T09:33:56.283Z,96065.19
2022-08-16T09:35:01.361Z,96060.50
2022-08-16T09:36:02.997Z,96056.16
2022-08-16T09:44:00.211Z,96068.94
2022-08-16T09:45:13.144Z,96070.09
2022-08-16T09:46:45.024Z,96069.63
2022-08-16T09:47:56.878Z,96072.59
2022-08-16T09:49:03.585Z,96063.50
2022-08-16T09:50:11.791Z,96074.50
2022-08-16T09:51:13.941Z,96076.75
2022-08-16T09:52:15.662Z,96074.34
2022-08-16T09:53:20.986Z,96081.44
2022-08-16T09:54:23.833Z,96074.94
2022-08-16T09:55:25.444Z,96079.28
2022-08-16T09:56:31.939Z,96073.00
2022-08-16T09:57:34.388Z,96077.44
2022-08-16T09:58:40.811Z,96076.06
2022-08-16T09:59:57.926Z,96072.91
2022-08-16T10:01:00.843Z,96074.38
2022-08-16T10:02:26.354Z,96072.34
2022-08-16T10:03:24.007Z,96061.25
2022-08-16T10:04:29.951Z,96074.28
2022-08-16T10:05:37.183Z,96075.41
2022-08-16T10:06:38.802Z,96065.13
2022-08-16T10:07:55.899Z,96073.03
2022-08-16T10:09:05.760Z,96074.31
2022-08-16T10:10:11.696Z,96068.22
2022-08-16T10:11:31.967Z,96075.09
2022-08-16T10:13:10.511Z,96075.88
2022-08-16T10:14:12.152Z,96071.84
2022-08-16T10:15:21.096Z,96074.66
2022-08-16T10:16:22.932Z,96072.56
2022-08-16T10:17:25.160Z,96072.34
2022-08-16T10:19:02.210Z,96074.00
2022-08-16T10:19:52.951Z,96076.16
2022-08-16T10:20:55.838Z,96069.69
2022-08-16T10:21:59.441Z,96063.50
2022-08-16T10:23:10.008Z,96077.69
2022-08-16T10:24:28.632Z,96076.41
2022-08-16T10:31:53.198Z,96074.22
2022-08-16T10:32:55.677Z,96075.91
2022-08-16T10:33:57.180Z,96079.31
2022-08-16T10:34:58.992Z,96079.03
2022-08-16T10:36:04.017Z,96083.25
2022-08-16T10:37:05.744Z,96082.25
2022-08-16T10:38:09.520Z,96078.25
2022-08-16T10:39:11.191Z,96079.31
2022-08-16T10:40:28.445Z,96077.66
2022-08-16T10:41:32.827Z,96078.53
2022-08-16T10:42:34.214Z,96083.41
2022-08-16T10:43:36.928Z,96079.25
2022-08-16T10:44:38.519Z,96072.84
2022-08-16T10:45:40.705Z,96087.53
2022-08-16T10:46:43.595Z,96076.06
2022-08-16T10:47:47.159Z,96082.84
2022-08-16T10:49:01.029Z,96082.59
2022-08-16T10:50:07.491Z,96088.78
2022-08-16T10:51:33.488Z,96084.56
2022-08-16T10:53:41.760Z,96088.03
2022-08-16T10:54:59.441Z,96077.81
2022-08-16T10:56:02.880Z,96094.06
2022-08-16T10:57:05.319Z,96084.03
2022-08-16T10:58:16.839Z,96081.84
2022-08-16T10:59:45.776Z,96083.34
2022-08-16T11:00:40.743Z,96089.88
2022-08-16T11:01:43.447Z,96096.28
2022-08-16T11:02:58.929Z,96090.38
2022-08-16T11:05:04.909Z,96070.88
2022-08-16T11:07:43.068Z,96080.09
2022-08-16T11:08:17.389Z,96086.41
2022-08-16T11:09:29.719Z,96088.94
2022-08-16T11:11:06.358Z,96081.03
2022-08-16T11:12:14.014Z,96079.91
2022-08-16T11:13:56.979Z,96077.44
2022-08-16T11:15:11.398Z,96079.56
2022-08-16T11:16:25.405Z,96085.25
2022-08-16T11:17:25.066Z,96075.59
2022-08-16T11:18:48.685Z,96073.13
2022-08-16T11:21:29.303Z,96084.78
2022-08-16T11:22:47.317Z,96082.44
2022-08-16T11:23:57.788Z,96084.38
2022-08-16T11:26:03.889Z,96085.47
2022-08-16T11:26:24.007Z,96079.06
2022-08-16T11:27:35.540Z,96083.72
2022-08-16T11:29:12.710Z,96079.78
2022-08-16T11:29:59.375Z,96084.53
2022-08-16T11:31:00.801Z,96080.97
2022-08-16T11:32:05.420Z,96074.59
2022-08-16T11:33:10.731Z,96079.97
2022-08-16T11:34:15.495Z,96080.72
2022-08-16T11:36:59.342Z,96070.63
2022-08-16T11:38:46.647Z,96074.63
2022-08-16T11:39:30.695Z,96080.63
2022-08-16T11:40:52.716Z,96078.56
2022-08-16T11:41:54.637Z,96074.16
2022-08-16T11:42:56.409Z,96078.03
2022-08-16T11:43:58.008Z,96077.47
2022-08-16T11:44:59.546Z,96073.84
2022-08-16T11:46:43.090Z,96079.63
2022-08-16T11:47:26.210Z,96073.19
2022-08-16T11:48:30.561Z,96065.13
2022-08-16T11:49:32.017Z,96070.69
2022-08-16T11:50:34.418Z,96072.81
2022-08-16T11:51:36.150Z,96063.44
2022-08-16T11:52:38.883Z,96072.38
2022-08-16T11:53:47.777Z,96065.16
2022-08-16T11:54:53.820Z,96062.84
2022-08-16T11:56:00.367Z,96072.16
2022-08-16T11:57:04.497Z,96071.78
2022-08-16T11:58:11.509Z,96064.88
2022-08-16T11:59:13.094Z,96056.19
2022-08-16T12:00:34.173Z,96050.91
2022-08-16T12:01:55.085Z,96064.66
2022-08-16T12:02:57.182Z,96062.50
2022-08-16T12:03:58.705Z,96063.66
2022-08-16T12:05:02.057Z,96065.97
2022-08-16T12:06:25.370Z,96059.72
2022-08-16T12:07:33.367Z,96067.53
2022-08-16T12:08:35.430Z,96072.31
2022-08-16T12:09:43.191Z,96066.91
2022-08-16T12:10:46.632Z,96076.88
2022-08-16T12:11:52.504Z,96067.50
2022-08-16T12:12:55.559Z,96064.34
2022-08-16T12:14:01.997Z,96065.53
2022-08-16T12:15:07.249Z,96071.63
2022-08-16T12:16:10.313Z,96059.34
2022-08-16T12:17:11.707Z,96060.72
2022-08-16T12:18:13.213Z,96057.22
2022-08-16T12:19:23.355Z,96055.91
2022-08-16T12:20:38.427Z,96056.91
2022-08-16T12:21:58.267Z,96058.13
2022-08-16T12:23:02.330Z,96061.03
2022-08-16T12:24:05.686Z,96044.34
2022-08-16T12:25:11.067Z,96058.19
2022-08-16T12:26:12.442Z,96058.34
2022-08-16T12:27:14.617Z,96062.06
2022-08-16T12:28:16.874Z,96055.69
2022-08-16T12:29:38.216Z,96053.41
2022-08-16T12:30:42.649Z,96055.31
2022-08-16T12:32:01.263Z,96055.34
2022-08-16T12:33:07.992Z,96059.84
2022-08-16T12:34:09.566Z,96050.91
2022-08-16T12:35:21.845Z,96042.06
2022-08-16T12:36:24.330Z,96041.16
2022-08-16T12:37:25.805Z,96047.69
2022-08-16T12:38:41.031Z,96047.78
2022-08-16T12:39:51.186Z,96041.13
2022-08-16T12:40:55.693Z,96035.56
2022-08-16T12:41:59.155Z,96037.56
2022-08-16T12:43:06.360Z,96049.25
2022-08-16T12:44:07.910Z,96052.22
2022-08-16T12:45:15.025Z,96042.06
2022-08-16T12:46:16.527Z,96045.16
2022-08-16T12:47:37.131Z,96036.59
2022-08-16T12:48:58.724Z,96039.13
2022-08-16T12:50:00.128Z,96034.16
2022-08-16T12:51:04.559Z,96040.31
2022-08-16T12:52:33.254Z,96030.84
2022-08-16T12:53:39.835Z,96036.44
2022-08-16T12:54:41.628Z,96036.72
2022-08-16T12:55:44.809Z,96038.13
2022-08-16T12:56:46.812Z,96038.38
2022-08-16T12:57:58.211Z,96037.63
2022-08-16T12:59:04.349Z,96036.84
2022-08-16T13:00:26.607Z,96036.50
2022-08-16T13:01:35.842Z,96038.75
2022-08-16T13:02:37.281Z,96034.94
2022-08-16T13:03:40.957Z,96030.50
2022-08-16T13:04:42.377Z,96032.00
2022-08-16T13:05:53.267Z,96034.81
2022-08-16T13:06:59.173Z,96039.50
2022-08-16T13:08:00.945Z,96033.13
2022-08-16T13:09:18.211Z,96028.91
2022-08-16T13:10:37.380Z,96034.75
2022-08-16T13:11:49.101Z,96026.19
2022-08-16T13:12:59.453Z,96034.91
2022-08-16T13:14:01.036Z,96037.94
2022-08-16T13:15:02.588Z,96032.22
2022-08-16T13:16:15.269Z,96034.66
2022-08-16T13:17:26.324Z,96031.72
2022-08-16T13:18:34.791Z,96025.38
2022-08-16T13:20:05.997Z,96017.50
2022-08-16T13:20:58.595Z,96019.75
2022-08-16T13:22:00.021Z,96018.59
2022-08-16T13:23:11.323Z,96023.75
2022-08-16T13:24:13.162Z,96034.59
2022-08-16T13:25:21.920Z,96020.25
2022-08-16T13:26:26.440Z,96019.63
2022-08-16T13:28:03.171Z,96019.75
2022-08-16T13:28:49.648Z,96015.31
2022-08-16T13:29:57.851Z,96015.25
2022-08-16T13:31:00.278Z,96008.41
2022-08-16T13:32:01.784Z,96019.50
2022-08-16T13:33:11.473Z,96013.03
2022-08-16T13:34:18.382Z,96011.78
2022-08-16T13:35:26.709Z,96019.44
2022-08-16T13:36:48.456Z,96010.69
2022-08-16T13:37:50.552Z,96001.06
2022-08-16T13:38:53.104Z,95998.47
2022-08-16T13:39:55.941Z,96014.81
2022-08-16T13:40:57.821Z,96009.78
2022-08-16T13:42:02.274Z,96010.28
2022-08-16T13:43:04.001Z,96004.47
2022-08-16T13:44:09.367Z,96010.56
2022-08-16T13:45:15.668Z,96009.22
2022-08-16T13:46:17.352Z,96011.09
2022-08-16T13:47:19.447Z,96003.94
2022-08-16T13:48:24.958Z,96005.31
2022-08-16T13:49:27.101Z,96008.06
2022-08-16T13:50:49.094Z,96011.13
2022-08-16T13:51:53.024Z,96000.59
2022-08-16T13:52:56.543Z,96004.41
2022-08-16T13:54:03.759Z,96001.72
2022-08-16T13:55:06.453Z,96004.00
2022-08-16T13:56:21.891Z,96001.13
2022-08-16T13:57:53.553Z,96000.66
2022-08-16T13:58:54.407Z,95999.25
2022-08-16T13:59:57.800Z,95993.56
2022-08-16T14:01:00.407Z,95990.69
2022-08-16T14:02:05.478Z,95986.91
2022-08-16T14:03:09.969Z,95997.75
2022-08-16T14:04:23.232Z,95988.69
2022-08-16T14:05:27.508Z,95991.28
2022-08-16T14:06:29.141Z,95988.34
2022-08-16T14:07:30.842Z,95991.78
2022-08-16T14:08:37.981Z,95984.84
2022-08-16T14:09:43.801Z,95987.28
2022-08-16T14:10:45.217Z,95987.41
2022-08-16T14:11:47.328Z,96000.00
2022-08-16T14:12:51.982Z,95989.94
2022-08-16T14:13:53.627Z,95990.16
2022-08-16T14:14:57.236Z,95991.19
2022-08-16T14:15:58.863Z,95996.00
2022-08-16T14:17:02.197Z,95992.34
2022-08-16T14:18:17.133Z,95994.47
2022-08-16T14:19:22.504Z,95999.78
2022-08-16T14:20:25.574Z,95988.03
2022-08-16T14:21:27.018Z,95997.75
2022-08-16T14:22:42.560Z,95999.50
2022-08-16T14:23:44.421Z,95987.59
2022-08-16T14:24:48.845Z,95995.56
2022-08-16T14:25:53.608Z,95999.75
2022-08-16T14:26:55.923Z,96002.91
2022-08-16T14:27:58.482Z,95996.03
2022-08-16T14:29:03.101Z,95994.84
2022-08-16T14:30:07.200Z,95990.69
2022-08-16T14:31:09.454Z,95993.75
2022-08-16T14:32:22.009Z,96000.38
2022-08-16T14:33:33.058Z,95985.75
2022-08-16T14:34:34.552Z,95990.22
2022-08-16T14:35:50.438Z,95984.72
2022-08-16T14:36:52.918Z,95987.25
2022-08-16T14:37:57.166Z,95984.28
2022-08-16T14:39:00.462Z,95988.22
2022-08-16T14:40:03.291Z,95986.97
2022-08-16T14:41:05.214Z,95981.41
2022-08-16T14:42:15.253Z,95985.31
2022-08-16T14:43:17.727Z,95988.28
2022-08-16T14:44:19.151Z,95984.31
2022-08-16T14:45:26.838Z,95982.78
2022-08-16T14:46:28.693Z,95984.63
2022-08-16T14:47:34.153Z,95982.75
2022-08-16T14:48:36.675Z,95992.03
2022-08-16T14:49:40.500Z,95980.19
2022-08-16T14:50:42.214Z,95988.25
2022-08-16T14:51:46.215Z,95977.75
2022-08-16T14:52:56.335Z,95974.59
2022-08-16T14:54:01.344Z,95967.34
2022-08-16T14:55:04.211Z,95977.34
2022-08-16T14:56:05.909Z,95980.53
2022-08-16T14:57:07.386Z,95987.63
2022-08-16T14:58:10.546Z,95983.13
2022-08-16T14:59:21.152Z,95984.31
2022-08-16T15:00:32.764Z,95982.56
2022-08-16T15:01:57.606Z,95984.09
2022-08-16T15:02:58.507Z,95975.97
2022-08-16T15:04:00.231Z,95981.13
2022-08-16T15:05:04.653Z,95981.44
2022-08-16T15:06:08.401Z,95972.81
2022-08-16T15:07:16.330Z,95981.72
2022-08-16T15:08:17.863Z,95977.91
2022-08-16T15:09:21.953Z,95963.50
2022-08-16T15:10:26.770Z,95978.44
2022-08-16T15:11:30.936Z,95976.41
2022-08-16T15:12:36.315Z,95965.81
2022-08-16T15:13:38.021Z,95964.28
2022-08-16T15:14:41.442Z,95972.09
2022-08-16T15:15:44.856Z,95965.31
2022-08-16T15:17:00.323Z,95966.84
2022-08-16T15:18:02.290Z,95970.31
2022-08-16T15:19:04.513Z,95972.53
2022-08-16T15:20:08.689Z,95968.97
2022-08-16T15:21:10.399Z,95965.28
2022-08-16T15:22:15.608Z,95973.38
2022-08-16T15:23:18.061Z,95957.47
2022-08-16T15:24:22.346Z,95961.38
2022-08-16T15:25:29.539Z,95963.63
2022-08-16T15:26:34.875Z,95963.50
2022-08-16T15:27:55.137Z,95965.81
2022-08-16T15:28:57.210Z,95966.22
2022-08-16T15:30:00.343Z,95973.03
2022-08-16T15:31:04.049Z,95967.38
2022-08-16T15:32:06.158Z,95970.44
2022-08-16T15:33:13.439Z,95964.88
2022-08-16T15:34:19.064Z,95968.69
2022-08-16T15:35:27.954Z,95977.53
2022-08-16T15:36:31.263Z,95980.09
2022-08-16T15:37:42.675Z,95981.25
2022-08-16T15:39:05.824Z,95979.16
2022-08-16T15:40:32.029Z,95973.25
2022-08-16T15:41:42.998Z,95977.41
2022-08-16T15:42:54.274Z,95980.72
2022-08-16T15:44:10.189Z,95975.53
2022-08-16T15:45:12.696Z,95979.94
2022-08-16T15:46:35.423Z,95966.94
2022-08-16T15:47:48.914Z,95979.88
2022-08-16T15:48:57.761Z,95973.63
2022-08-16T15:50:02.607Z,95974.13
2022-08-16T15:51:08.235Z,95964.66
2022-08-16T15:52:24.944Z,95971.75
2022-08-16T15:53:31.939Z,95974.13
2022-08-16T15:54:53.414Z,95964.59
2022-08-16T15:55:59.129Z,95970.94
2022-08-16T15:57:12.069Z,95974.25
2022-08-16T15:58:38.380Z,95971.00
2022-08-16T15:59:49.293Z,95970.78
2022-08-16T16:00:55.206Z,95970.44
2022-08-16T16:01:58.257Z,95973.16
2022-08-16T16:03:08.735Z,95969.50
2022-08-16T16:04:10.307Z,95978.56
2022-08-16T16:05:11.751Z,95974.44
2022-08-16T16:06:16.812Z,95975.06
2022-08-16T16:07:18.259Z,95974.13
2022-08-16T16:08:22.456Z,95971.88
2022-08-16T16:09:36.731Z,95974.09
2022-08-16T16:10:39.447Z,95975.78
2022-08-16T16:11:41.090Z,95970.13
2022-08-16T16:12:53.987Z,95966.53
2022-08-16T16:13:56.405Z,95960.22
2022-08-16T16:14:57.898Z,95969.31
2022-08-16T16:16:02.796Z,95972.09
2022-08-16T16:17:06.185Z,95972.81
2022-08-16T16:18:09.870Z,95971.50
2022-08-16T16:19:11.742Z,95967.50
2022-08-16T16:20:14.909Z,95975.22
2022-08-16T16:21:20.439Z,95973.59
2022-08-16T16:22:22.252Z,95973.09
2022-08-16T16:23:33.762Z,95972.31
2022-08-16T16:24:35.872Z,95970.81
2022-08-16T16:25:39.869Z,95967.28
2022-08-16T16:26:45.834Z,95974.38
2022-08-16T16:27:55.939Z,95961.00
2022-08-16T16:29:07.867Z,95976.56
2022-08-16T16:30:33.143Z,95966.81
2022-08-16T16:31:40.827Z,95970.34
2022-08-16T16:32:46.161Z,95965.75
2022-08-16T16:33:52.220Z,95960.19
2022-08-16T16:34:57.708Z,95960.47
2022-08-16T16:36:00.465Z,95962.38
2022-08-16T16:37:02.529Z,95959.53
2022-08-16T16:38:07.819Z,95955.66
2022-08-16T16:39:10.189Z,95960.19
2022-08-16T16:40:12.986Z,95965.25
2022-08-16T16:41:27.932Z,95956.78
2022-08-16T16:42:31.345Z,95965.78
2022-08-16T16:43:35.683Z,95964.06
2022-08-16T16:44:37.620Z,95958.75
2022-08-16T16:45:52.292Z,95953.53
2022-08-16T16:46:56.476Z,95964.59
2022-08-16T16:48:11.856Z,95954.44
2022-08-16T16:49:14.899Z,95957.31
2022-08-16T16:50:19.479Z,95962.16
2022-08-16T16:51:22.379Z,95970.44
2022-08-16T16:52:44.265Z,95964.47
2022-08-16T16:53:56.312Z,95956.72
2022-08-16T16:54:58.426Z,95961.22
2022-08-16T16:55:59.825Z,95959.47
2022-08-16T16:57:02.178Z,95963.88
2022-08-16T16:58:35.127Z,95960.41
2022-08-16T16:59:36.977Z,95965.41
2022-08-16T17:00:40.497Z,95963.41
2022-08-16T17:01:59.531Z,95960.31
2022-08-16T17:03:17.017Z,95970.00
2022-08-16T17:04:23.855Z,95967.03
2022-08-16T17:05:32.870Z,95974.72
2022-08-16T17:06:37.269Z,95970.41
2022-08-16T17:07:38.732Z,95971.16
2022-08-16T17:08:41.861Z,95965.41
2022-08-16T17:09:45.677Z,95964.03
2022-08-16T17:10:49.127Z,95974.03
2022-08-16T17:11:55.430Z,95967.66
2022-08-16T17:12:58.140Z,95959.75
2022-08-16T17:14:13.902Z,95963.56
2022-08-16T17:15:36.303Z,95966.09
2022-08-16T17:16:40.358Z,95962.78
2022-08-16T17:18:00.255Z,95962.81
2022-08-16T17:19:16.529Z,95969.00
2022-08-16T17:20:21.373Z,95958.44
2022-08-16T17:21:26.728Z,95966.94
2022-08-16T17:22:32.909Z,95961.00
2022-08-16T17:23:58.109Z,95954.34
2022-08-16T17:24:57.230Z,95958.75
2022-08-16T17:26:00.863Z,95941.06
2022-08-16T17:27:04.045Z,95955.78
2022-08-16T17:28:59.629Z,95955.19
2022-08-16T17:29:30.911Z,95957.88
2022-08-16T17:30:44.941Z,95957.00
2022-08-16T17:31:47.418Z,95957.81
2022-08-16T17:32:55.538Z,95968.69
2022-08-16T17:33:58.887Z,95962.41
2022-08-16T17:35:10.907Z,95955.47
2022-08-16T17:36:36.020Z,95969.34
2022-08-16T17:37:42.441Z,95955.88
2022-08-16T17:38:53.620Z,95957.34
2022-08-16T17:40:00.039Z,95963.31
2022-08-16T17:41:05.401Z,95969.75
2022-08-16T17:42:16.333Z,95959.47
2022-08-16T17:43:23.121Z,95971.88
2022-08-16T17:44:25.335Z,95966.94
2022-08-16T17:45:28.091Z,95969.28
2022-08-16T17:46:51.501Z,95967.97
2022-08-16T17:47:51.769Z,95978.41
2022-08-16T17:48:53.471Z,95973.53
2022-08-16T17:49:55.030Z,95970.19
2022-08-16T17:50:57.176Z,95971.00
2022-08-16T17:51:58.906Z,95972.09
2022-08-16T17:53:00.891Z,95972.88
2022-08-16T17:54:03.513Z,95970.56
2022-08-16T17:55:07.737Z,95970.97
2022-08-16T17:56:10.398Z,95973.94
2022-08-16T17:57:12.454Z,95967.97
2022-08-16T17:58:22.562Z,95971.41
2022-08-16T17:59:25.600Z,95969.81
2022-08-16T18:00:28.817Z,95973.66
2022-08-16T18:01:30.778Z,95966.88
2022-08-16T18:02:43.605Z,95951.19
2022-08-16T18:04:07.603Z,95972.31
2022-08-16T18:05:07.576Z,95973.25
2022-08-16T18:06:11.740Z,95968.47
2022-08-16T18:07:13.204Z,95971.44
2022-08-16T18:08:15.574Z,95969.50
2022-08-16T18:09:18.692Z,95969.03
2022-08-16T18:10:33.165Z,95969.97
2022-08-16T18:11:40.806Z,95973.97
2022-08-16T18:12:50.808Z,95979.75
